Amana, Iowa
Current Conditions -  °F | °C
As of 4:52 PM on Saturday 25 Oct 2014 (Local Time) from KCID Reporting Station
Clear Clear  
Wind Chill: 67°   Ceiling: Unl
Heat Index: 67°   Visibility: 10mi
Dew Point: 36°   Wind: 12mph
Humidity: 32%   Direction: 320°NW
Pressure: 30.03"   Gusts: NA
Location:  41.8°N, 91.87°W
Report Text: KCID 252152Z 32010KT 10SM CLR 19/02 A3003 RMK AO2 SLP170 T01940022
Loading
Personal Weather Stations






























Interactive Weather Map New forecast layout! Learn more

10-Day Weather Forecast

Advertisements
Track Severe Weather on mobile